createdAt,value
2019-06-27T00:00:39.389Z,0.00
2019-06-27T00:01:39.359Z,0.00
2019-06-27T00:02:39.335Z,0.00
2019-06-27T00:03:39.326Z,0.00
2019-06-27T00:04:39.344Z,0.00
2019-06-27T00:05:39.323Z,0.00
2019-06-27T00:06:39.295Z,0.00
2019-06-27T00:07:39.320Z,0.00
2019-06-27T00:08:39.273Z,0.00
2019-06-27T00:09:39.261Z,0.00
2019-06-27T00:10:39.732Z,0.00
2019-06-27T00:11:39.235Z,0.00
2019-06-27T00:12:39.243Z,0.00
2019-06-27T00:13:39.250Z,0.00
2019-06-27T00:14:39.726Z,0.00
2019-06-27T00:15:39.208Z,0.00
2019-06-27T00:16:39.198Z,0.00
2019-06-27T00:17:39.170Z,0.00
2019-06-27T00:18:39.158Z,0.00
2019-06-27T00:19:39.731Z,0.00
2019-06-27T00:20:39.146Z,0.00
2019-06-27T00:21:39.720Z,0.00
2019-06-27T00:22:41.211Z,0.00
2019-06-27T00:23:39.107Z,0.00
2019-06-27T00:24:39.728Z,0.00
2019-06-27T00:25:39.242Z,0.00
2019-06-27T00:26:55.799Z,0.00
2019-06-27T00:27:39.068Z,0.00
2019-06-27T00:28:39.726Z,0.00
2019-06-27T00:29:39.041Z,0.00
2019-06-27T00:30:39.039Z,0.00
2019-06-27T00:31:39.020Z,0.00
2019-06-27T00:32:39.008Z,0.00
2019-06-27T00:33:39.001Z,0.00
2019-06-27T00:34:39.007Z,0.00
2019-06-27T00:35:38.991Z,0.00
2019-06-27T00:36:38.967Z,0.00
2019-06-27T00:37:38.956Z,0.00
2019-06-27T00:38:39.736Z,0.00
2019-06-27T00:39:38.939Z,0.00
2019-06-27T00:40:38.933Z,0.00
2019-06-27T00:41:38.908Z,0.00
2019-06-27T00:42:38.902Z,0.00
2019-06-27T00:43:39.755Z,0.00
2019-06-27T00:44:38.883Z,0.00
2019-06-27T00:45:38.878Z,0.00
2019-06-27T00:46:39.730Z,0.00
2019-06-27T00:47:38.855Z,0.00
2019-06-27T00:48:38.844Z,0.00
2019-06-27T00:49:38.830Z,0.00
2019-06-27T00:50:39.238Z,0.00
2019-06-27T00:51:38.811Z,0.00
2019-06-27T00:52:38.794Z,0.00
2019-06-27T00:53:38.798Z,0.00
2019-06-27T00:54:39.732Z,0.00
2019-06-27T00:55:38.763Z,0.00
2019-06-27T00:56:38.762Z,0.00
2019-06-27T00:57:38.742Z,0.00
2019-06-27T00:58:38.731Z,0.00
2019-06-27T00:59:38.727Z,0.00
2019-06-27T01:00:38.704Z,0.00
2019-06-27T01:01:38.742Z,0.00
2019-06-27T01:02:39.227Z,0.00
2019-06-27T01:03:38.677Z,0.00
2019-06-27T01:04:39.233Z,0.00
2019-06-27T01:05:38.657Z,0.00
2019-06-27T01:06:38.656Z,0.00
2019-06-27T01:07:38.636Z,0.00
2019-06-27T01:08:38.622Z,0.00
2019-06-27T01:09:38.629Z,0.00
2019-06-27T01:10:38.599Z,0.00
2019-06-27T01:11:38.597Z,0.00
2019-06-27T01:12:38.591Z,0.00
2019-06-27T01:13:38.569Z,0.00
2019-06-27T01:14:38.561Z,0.00
2019-06-27T01:15:38.547Z,0.00
2019-06-27T01:16:38.561Z,0.00
2019-06-27T01:17:39.240Z,0.00
2019-06-27T01:18:38.516Z,0.00
2019-06-27T01:19:38.594Z,0.00
2019-06-27T01:20:38.494Z,0.00
2019-06-27T01:21:38.493Z,0.00
2019-06-27T01:22:38.474Z,0.00
2019-06-27T01:23:38.461Z,0.00
2019-06-27T01:24:39.240Z,0.00
2019-06-27T01:25:38.440Z,0.00
2019-06-27T01:26:38.443Z,0.00
2019-06-27T01:27:38.420Z,0.00
2019-06-27T01:28:38.407Z,0.00
2019-06-27T01:29:39.250Z,0.00
2019-06-27T01:30:38.393Z,0.00
2019-06-27T01:31:38.428Z,0.00
2019-06-27T01:32:38.365Z,0.00
2019-06-27T01:33:39.245Z,0.00
2019-06-27T01:34:39.228Z,0.00
2019-06-27T01:35:38.340Z,0.00
2019-06-27T01:36:38.351Z,0.00
2019-06-27T01:37:39.239Z,0.00
2019-06-27T01:38:38.302Z,0.00
2019-06-27T01:39:38.296Z,0.00
2019-06-27T01:40:38.286Z,0.00
2019-06-27T01:41:38.304Z,0.00
2019-06-27T01:42:39.239Z,0.00
2019-06-27T01:43:38.245Z,0.00
2019-06-27T01:44:38.240Z,0.00
2019-06-27T01:45:38.231Z,0.00
2019-06-27T01:46:38.228Z,0.00
2019-06-27T01:47:38.732Z,0.00
2019-06-27T01:48:38.204Z,0.00
2019-06-27T01:49:38.208Z,0.00
2019-06-27T01:50:38.744Z,0.00
2019-06-27T01:51:38.198Z,0.00
2019-06-27T01:52:38.736Z,0.00
2019-06-27T01:53:38.145Z,0.00
2019-06-27T01:54:38.732Z,0.00
2019-06-27T01:55:38.124Z,0.00
2019-06-27T01:56:38.106Z,0.00
2019-06-27T01:57:46.668Z,0.00
2019-06-27T01:58:38.094Z,0.00
2019-06-27T01:59:38.074Z,0.00
2019-06-27T02:00:38.065Z,0.00
2019-06-27T02:01:38.052Z,0.00
2019-06-27T02:02:38.048Z,0.00
2019-06-27T02:03:38.053Z,0.00
2019-06-27T02:04:38.743Z,0.00
2019-06-27T02:05:38.019Z,0.00
2019-06-27T02:06:38.000Z,0.00
2019-06-27T02:07:38.015Z,0.00
2019-06-27T02:08:38.001Z,0.00
2019-06-27T02:09:37.966Z,0.00
2019-06-27T02:10:37.953Z,0.00
2019-06-27T02:11:37.973Z,0.00
2019-06-27T02:12:37.965Z,0.00
2019-06-27T02:13:37.923Z,0.00
2019-06-27T02:14:37.913Z,0.00
2019-06-27T02:15:37.911Z,0.00
2019-06-27T02:16:37.911Z,0.00
2019-06-27T02:17:37.891Z,0.00
2019-06-27T02:18:37.887Z,0.00
2019-06-27T02:19:37.863Z,0.00
2019-06-27T02:20:38.732Z,0.00
2019-06-27T02:21:38.735Z,0.00
2019-06-27T02:22:37.842Z,0.00
2019-06-27T02:23:38.737Z,0.00
2019-06-27T02:24:37.806Z,0.00
2019-06-27T02:25:37.792Z,0.00
2019-06-27T02:26:37.798Z,0.00
2019-06-27T02:27:38.246Z,0.00
2019-06-27T02:28:37.795Z,0.00
2019-06-27T02:29:38.736Z,0.00
2019-06-27T02:30:37.744Z,0.00
2019-06-27T02:31:37.737Z,0.00
2019-06-27T02:32:37.779Z,0.00
2019-06-27T02:33:37.716Z,0.00
2019-06-27T02:34:38.259Z,0.00
2019-06-27T02:35:37.692Z,0.00
2019-06-27T02:36:38.254Z,0.00
2019-06-27T02:37:38.240Z,0.00
2019-06-27T02:38:37.698Z,0.00
2019-06-27T02:39:37.714Z,0.00
2019-06-27T02:40:37.632Z,0.00
2019-06-27T02:41:37.629Z,0.00
2019-06-27T02:42:37.617Z,0.00
2019-06-27T02:43:37.780Z,0.00
2019-06-27T02:44:37.613Z,0.00
2019-06-27T02:45:37.575Z,0.00
2019-06-27T02:46:37.569Z,0.00
2019-06-27T02:47:37.557Z,0.00
2019-06-27T02:48:37.755Z,0.00
2019-06-27T02:49:37.541Z,0.00
2019-06-27T02:50:37.553Z,0.00
2019-06-27T02:51:37.525Z,0.00
2019-06-27T02:52:37.514Z,0.00
2019-06-27T02:53:37.499Z,0.00
2019-06-27T02:54:37.484Z,0.00
2019-06-27T02:55:38.238Z,0.00
2019-06-27T02:56:37.461Z,0.00
2019-06-27T02:57:37.451Z,0.00
2019-06-27T02:58:37.447Z,0.00
2019-06-27T02:59:37.433Z,0.00
2019-06-27T03:00:37.430Z,0.00
2019-06-27T03:01:37.414Z,0.00
2019-06-27T03:02:37.401Z,0.00
2019-06-27T03:03:37.400Z,0.00
2019-06-27T03:04:37.381Z,0.00
2019-06-27T03:05:37.383Z,0.00
2019-06-27T03:06:37.353Z,0.00
2019-06-27T03:07:37.358Z,0.00
2019-06-27T03:08:37.362Z,0.00
2019-06-27T03:09:37.325Z,0.00
2019-06-27T03:10:37.310Z,0.00
2019-06-27T03:11:37.303Z,0.00
2019-06-27T03:12:37.305Z,0.00
2019-06-27T03:13:37.318Z,0.00
2019-06-27T03:14:37.279Z,0.00
2019-06-27T03:15:37.257Z,0.00
2019-06-27T03:16:37.243Z,0.00
2019-06-27T03:17:37.232Z,0.00
2019-06-27T03:18:37.257Z,0.00
2019-06-27T03:19:37.219Z,0.00
2019-06-27T03:20:37.202Z,0.00
2019-06-27T03:21:37.193Z,0.00
2019-06-27T03:22:37.188Z,0.00
2019-06-27T03:23:37.273Z,0.00
2019-06-27T03:24:37.176Z,0.00
2019-06-27T03:25:37.183Z,0.00
2019-06-27T03:26:37.138Z,0.00
2019-06-27T03:27:37.132Z,0.00
2019-06-27T03:28:50.927Z,0.00
2019-06-27T03:29:37.112Z,0.00
2019-06-27T03:30:37.097Z,0.00
2019-06-27T03:31:37.097Z,0.00
2019-06-27T03:32:37.085Z,0.00
2019-06-27T03:33:37.076Z,0.00
2019-06-27T03:34:37.065Z,0.00
2019-06-27T03:35:37.117Z,0.00
2019-06-27T03:36:37.768Z,0.00
2019-06-27T03:37:37.026Z,0.00
2019-06-27T03:38:37.006Z,0.00
2019-06-27T03:39:37.012Z,0.00
2019-06-27T03:40:36.990Z,0.00
2019-06-27T03:41:36.981Z,0.00
2019-06-27T03:42:36.978Z,0.00
2019-06-27T03:43:36.955Z,0.00
2019-06-27T03:44:36.987Z,0.00
2019-06-27T03:45:36.941Z,0.00
2019-06-27T03:46:37.793Z,0.00
2019-06-27T03:47:36.914Z,0.00
2019-06-27T03:48:36.905Z,0.00
2019-06-27T03:49:36.903Z,0.00
2019-06-27T03:50:36.879Z,0.00
2019-06-27T03:51:36.867Z,4.00
2019-06-27T03:52:36.866Z,4.00
2019-06-27T03:53:36.851Z,4.00
2019-06-27T03:54:36.849Z,4.00
2019-06-27T03:55:36.829Z,4.00
2019-06-27T03:56:36.822Z,4.00
2019-06-27T03:57:36.805Z,4.00
2019-06-27T03:58:36.797Z,4.00
2019-06-27T03:59:37.257Z,4.00
2019-06-27T04:00:36.780Z,4.00
2019-06-27T04:01:37.809Z,4.00
2019-06-27T04:02:36.781Z,4.00
2019-06-27T04:03:36.739Z,4.00
2019-06-27T04:04:36.784Z,4.00
2019-06-27T04:05:36.719Z,4.00
2019-06-27T04:06:37.245Z,4.00
2019-06-27T04:07:36.703Z,4.00
2019-06-27T04:08:36.704Z,0.00
2019-06-27T04:09:36.841Z,4.00
2019-06-27T04:10:36.668Z,4.00
2019-06-27T04:11:36.652Z,4.00
2019-06-27T04:12:36.664Z,4.00
2019-06-27T04:13:36.637Z,4.00
2019-06-27T04:14:36.758Z,4.00
2019-06-27T04:15:36.616Z,4.00
2019-06-27T04:16:37.248Z,4.00
2019-06-27T04:17:36.585Z,4.00
2019-06-27T04:18:36.578Z,4.00
2019-06-27T04:19:36.767Z,4.00
2019-06-27T04:20:36.774Z,4.00
2019-06-27T04:21:36.554Z,4.00
2019-06-27T04:22:37.254Z,4.00
2019-06-27T04:23:36.527Z,4.00
2019-06-27T04:24:37.248Z,4.00
2019-06-27T04:25:36.519Z,8.00
2019-06-27T04:26:36.500Z,8.00
2019-06-27T04:27:36.530Z,4.00
2019-06-27T04:28:36.476Z,4.00
2019-06-27T04:29:36.458Z,8.00
2019-06-27T04:30:36.463Z,8.00
2019-06-27T04:31:36.523Z,8.00
2019-06-27T04:32:36.438Z,8.00
2019-06-27T04:33:36.426Z,8.00
2019-06-27T04:34:36.406Z,4.00
2019-06-27T04:35:36.414Z,4.00
2019-06-27T04:36:36.385Z,4.00
2019-06-27T04:37:36.374Z,4.00
2019-06-27T04:38:36.399Z,4.00
2019-06-27T04:39:36.377Z,4.00
2019-06-27T04:40:36.359Z,4.00
2019-06-27T04:41:36.329Z,4.00
2019-06-27T04:42:36.320Z,4.00
2019-06-27T04:43:36.313Z,4.00
2019-06-27T04:44:37.251Z,8.00
2019-06-27T04:45:36.756Z,8.00
2019-06-27T04:46:36.308Z,8.00
2019-06-27T04:47:36.264Z,8.00
2019-06-27T04:48:36.263Z,8.00
2019-06-27T04:49:36.245Z,8.00
2019-06-27T04:50:36.245Z,8.00
2019-06-27T04:51:36.229Z,8.00
2019-06-27T04:52:36.212Z,8.00
2019-06-27T04:53:36.216Z,12.00
2019-06-27T04:54:36.201Z,8.00
2019-06-27T04:55:36.271Z,8.00
2019-06-27T04:56:36.173Z,8.00
2019-06-27T04:57:36.157Z,8.00
2019-06-27T04:58:36.149Z,8.00
2019-06-27T04:59:51.759Z,12.00
2019-06-27T05:00:36.133Z,12.00
2019-06-27T05:01:36.113Z,12.00
2019-06-27T05:02:36.116Z,12.00
2019-06-27T05:03:36.120Z,12.00
2019-06-27T05:04:36.082Z,12.00
2019-06-27T05:05:36.085Z,12.00
2019-06-27T05:06:36.061Z,12.00
2019-06-27T05:07:36.059Z,12.00
2019-06-27T05:08:36.749Z,12.00
2019-06-27T05:09:36.032Z,12.00
2019-06-27T05:10:36.027Z,16.00
2019-06-27T05:11:36.752Z,12.00
2019-06-27T05:12:36.003Z,12.00
2019-06-27T05:13:36.029Z,16.00
2019-06-27T05:14:36.751Z,16.00
2019-06-27T05:15:35.971Z,16.00
2019-06-27T05:16:35.950Z,20.00
2019-06-27T05:17:35.944Z,16.00
2019-06-27T05:18:36.757Z,20.00
2019-06-27T05:19:35.920Z,20.00
2019-06-27T05:20:35.922Z,16.00
2019-06-27T05:21:35.896Z,16.00
2019-06-27T05:22:36.751Z,20.00
2019-06-27T05:23:35.871Z,20.00
2019-06-27T05:24:35.878Z,20.00
2019-06-27T05:25:36.755Z,20.00
2019-06-27T05:26:36.325Z,20.00
2019-06-27T05:27:35.832Z,20.00
2019-06-27T05:28:36.762Z,16.00
2019-06-27T05:29:36.756Z,16.00
2019-06-27T05:30:35.810Z,16.00
2019-06-27T05:31:36.264Z,16.00
2019-06-27T05:32:35.773Z,12.00
2019-06-27T05:33:35.766Z,16.00
2019-06-27T05:34:35.765Z,12.00
2019-06-27T05:35:36.251Z,16.00
2019-06-27T05:36:35.745Z,20.00
2019-06-27T05:37:35.723Z,12.00
2019-06-27T05:38:35.710Z,12.00
2019-06-27T05:39:35.701Z,12.00
2019-06-27T05:40:35.692Z,12.00
2019-06-27T05:41:35.766Z,12.00
2019-06-27T05:42:35.667Z,16.00
2019-06-27T05:43:35.654Z,16.00
2019-06-27T05:44:35.646Z,16.00
2019-06-27T05:45:35.632Z,16.00
2019-06-27T05:46:35.649Z,16.00
2019-06-27T05:47:35.614Z,16.00
2019-06-27T05:48:39.609Z,16.00
2019-06-27T05:49:35.661Z,16.00
2019-06-27T05:50:35.587Z,16.00
2019-06-27T05:51:35.765Z,16.00
2019-06-27T05:52:36.255Z,88.00
2019-06-27T05:53:35.547Z,104.00
2019-06-27T05:54:35.543Z,92.00
2019-06-27T05:55:35.528Z,96.00
2019-06-27T05:56:35.526Z,100.00
2019-06-27T05:57:35.503Z,76.00
2019-06-27T05:58:35.492Z,84.00
2019-06-27T05:59:35.583Z,96.00
2019-06-27T06:00:35.476Z,100.00
2019-06-27T06:01:35.472Z,116.00
2019-06-27T06:02:35.449Z,124.00
2019-06-27T06:03:35.436Z,132.00
2019-06-27T06:04:35.432Z,140.00
2019-06-27T06:05:36.257Z,140.00
2019-06-27T06:06:35.416Z,136.00
2019-06-27T06:07:36.269Z,144.00
2019-06-27T06:08:35.387Z,164.00
2019-06-27T06:09:35.372Z,184.00
2019-06-27T06:10:36.259Z,168.00
2019-06-27T06:11:35.358Z,176.00
2019-06-27T06:12:35.342Z,148.00
2019-06-27T06:13:35.328Z,180.00
2019-06-27T06:14:35.316Z,180.00
2019-06-27T06:15:35.306Z,176.00
2019-06-27T06:16:35.306Z,180.00
2019-06-27T06:17:35.295Z,184.00
2019-06-27T06:18:36.261Z,200.00
2019-06-27T06:19:35.263Z,196.00
2019-06-27T06:20:35.759Z,188.00
2019-06-27T06:21:35.258Z,184.00
2019-06-27T06:22:35.241Z,184.00
2019-06-27T06:23:35.217Z,188.00
2019-06-27T06:24:35.207Z,184.00
2019-06-27T06:25:35.199Z,168.00
2019-06-27T06:26:35.215Z,176.00
2019-06-27T06:27:35.753Z,180.00
2019-06-27T06:28:35.191Z,160.00
2019-06-27T06:29:35.755Z,184.00
2019-06-27T06:30:44.275Z,184.00
2019-06-27T06:31:35.130Z,180.00
2019-06-27T06:32:35.126Z,184.00
2019-06-27T06:33:35.763Z,184.00
2019-06-27T06:34:35.103Z,176.00
2019-06-27T06:35:35.766Z,172.00
2019-06-27T06:36:35.077Z,184.00
2019-06-27T06:37:35.070Z,180.00
2019-06-27T06:38:35.056Z,180.00
2019-06-27T06:39:35.054Z,184.00
2019-06-27T06:40:35.094Z,188.00
2019-06-27T06:41:35.034Z,176.00
2019-06-27T06:42:35.017Z,188.00
2019-06-27T06:43:34.997Z,204.00
2019-06-27T06:44:34.986Z,184.00
2019-06-27T06:45:34.978Z,180.00
2019-06-27T06:46:34.982Z,184.00
2019-06-27T06:47:34.965Z,184.00
2019-06-27T06:48:35.000Z,180.00
2019-06-27T06:49:34.928Z,184.00
2019-06-27T06:50:34.951Z,184.00
2019-06-27T06:51:34.919Z,188.00
2019-06-27T06:52:34.918Z,184.00
2019-06-27T06:53:34.892Z,188.00
2019-06-27T06:54:34.877Z,196.00
2019-06-27T06:55:34.871Z,192.00
2019-06-27T06:56:35.775Z,188.00
2019-06-27T06:57:34.860Z,188.00
2019-06-27T06:58:34.835Z,188.00
2019-06-27T06:59:35.756Z,184.00
2019-06-27T07:00:34.812Z,184.00
2019-06-27T07:01:34.802Z,184.00
2019-06-27T07:02:34.806Z,176.00
2019-06-27T07:03:34.801Z,184.00
2019-06-27T07:04:35.788Z,188.00
2019-06-27T07:05:34.773Z,196.00
2019-06-27T07:06:34.750Z,192.00
2019-06-27T07:07:34.779Z,192.00
2019-06-27T07:08:34.739Z,196.00
2019-06-27T07:09:34.714Z,192.00
2019-06-27T07:10:34.709Z,192.00
2019-06-27T07:11:34.691Z,188.00
2019-06-27T07:12:34.772Z,188.00
2019-06-27T07:13:35.258Z,188.00
2019-06-27T07:14:34.661Z,188.00
2019-06-27T07:15:34.649Z,192.00
2019-06-27T07:16:34.650Z,192.00
2019-06-27T07:17:34.800Z,192.00
2019-06-27T07:18:35.264Z,192.00
2019-06-27T07:19:34.606Z,192.00
2019-06-27T07:20:34.590Z,196.00
2019-06-27T07:21:34.581Z,200.00
2019-06-27T07:22:34.581Z,204.00
2019-06-27T07:23:34.560Z,204.00
2019-06-27T07:24:34.554Z,204.00
2019-06-27T07:25:34.538Z,208.00
2019-06-27T07:26:34.542Z,208.00
2019-06-27T07:27:34.552Z,200.00
2019-06-27T07:28:35.262Z,200.00
2019-06-27T07:29:34.547Z,200.00
2019-06-27T07:30:35.259Z,204.00
2019-06-27T07:31:34.482Z,196.00
2019-06-27T07:32:34.528Z,196.00
2019-06-27T07:33:34.473Z,196.00
2019-06-27T07:34:35.269Z,200.00
2019-06-27T07:35:34.438Z,196.00
2019-06-27T07:36:35.268Z,200.00
2019-06-27T07:37:34.427Z,200.00
2019-06-27T07:38:34.409Z,204.00
2019-06-27T07:39:34.385Z,84.00
2019-06-27T07:40:34.376Z,84.00
2019-06-27T07:41:34.366Z,88.00
2019-06-27T07:42:34.820Z,88.00
2019-06-27T07:43:34.375Z,88.00
2019-06-27T07:44:34.330Z,84.00
2019-06-27T07:45:34.323Z,88.00
2019-06-27T07:46:34.313Z,88.00
2019-06-27T07:47:35.283Z,88.00
2019-06-27T07:48:34.778Z,88.00
2019-06-27T07:49:34.271Z,88.00
2019-06-27T07:50:34.265Z,92.00
2019-06-27T07:51:34.258Z,92.00
2019-06-27T07:52:34.767Z,92.00
2019-06-27T07:53:34.293Z,92.00
2019-06-27T07:54:34.770Z,92.00
2019-06-27T07:55:34.210Z,92.00
2019-06-27T07:56:34.218Z,92.00
2019-06-27T07:57:34.781Z,92.00
2019-06-27T07:58:34.252Z,96.00
2019-06-27T07:59:34.167Z,96.00
2019-06-27T08:00:34.220Z,92.00
2019-06-27T08:01:35.882Z,96.00
2019-06-27T08:02:34.145Z,92.00
2019-06-27T08:03:34.316Z,92.00
2019-06-27T08:04:34.112Z,96.00
2019-06-27T08:05:34.123Z,96.00
2019-06-27T08:06:34.086Z,96.00
2019-06-27T08:07:34.077Z,100.00
2019-06-27T08:08:34.086Z,100.00
2019-06-27T08:09:34.077Z,96.00
2019-06-27T08:10:34.783Z,100.00
2019-06-27T08:11:34.033Z,100.00
2019-06-27T08:12:34.046Z,100.00
2019-06-27T08:13:34.028Z,100.00
2019-06-27T08:14:34.072Z,100.00
2019-06-27T08:15:33.991Z,96.00
2019-06-27T08:16:33.977Z,100.00
2019-06-27T08:17:33.999Z,96.00
2019-06-27T08:18:33.968Z,100.00
2019-06-27T08:19:33.948Z,100.00
2019-06-27T08:20:33.951Z,100.00
2019-06-27T08:21:33.941Z,100.00
2019-06-27T08:22:33.930Z,104.00
2019-06-27T08:23:41.402Z,104.00
2019-06-27T08:24:34.644Z,104.00
2019-06-27T08:25:33.884Z,100.00
2019-06-27T08:26:34.768Z,104.00
2019-06-27T08:27:34.767Z,104.00
2019-06-27T08:28:33.869Z,104.00
2019-06-27T08:29:34.777Z,104.00
2019-06-27T08:30:33.855Z,108.00
2019-06-27T08:31:42.000Z,104.00
2019-06-27T08:32:33.810Z,108.00
2019-06-27T08:33:33.823Z,108.00
2019-06-27T08:34:33.808Z,112.00
2019-06-27T08:35:33.812Z,108.00
2019-06-27T08:36:33.768Z,108.00
2019-06-27T08:37:33.762Z,108.00
2019-06-27T08:38:33.751Z,108.00
2019-06-27T08:39:33.767Z,108.00
2019-06-27T08:40:34.299Z,108.00
2019-06-27T08:41:33.716Z,108.00
2019-06-27T08:42:33.703Z,112.00
2019-06-27T08:43:33.709Z,108.00
2019-06-27T08:44:33.727Z,112.00
2019-06-27T08:45:33.670Z,108.00
2019-06-27T08:46:33.694Z,112.00
2019-06-27T08:47:33.661Z,112.00
2019-06-27T08:48:33.636Z,108.00
2019-06-27T08:49:33.782Z,108.00
2019-06-27T08:50:34.274Z,112.00
2019-06-27T08:51:33.611Z,116.00
2019-06-27T08:52:33.601Z,116.00
2019-06-27T08:53:33.598Z,116.00
2019-06-27T08:54:33.811Z,116.00
2019-06-27T08:55:34.277Z,112.00
2019-06-27T08:56:33.550Z,112.00
2019-06-27T08:57:33.541Z,112.00
2019-06-27T08:58:33.544Z,116.00
2019-06-27T08:59:33.550Z,112.00
2019-06-27T09:00:33.537Z,116.00
2019-06-27T09:01:34.278Z,116.00
2019-06-27T09:02:33.516Z,112.00
2019-06-27T09:03:33.489Z,112.00
2019-06-27T09:04:33.808Z,116.00
2019-06-27T09:05:33.455Z,120.00
2019-06-27T09:06:33.442Z,120.00
2019-06-27T09:07:33.440Z,116.00
2019-06-27T09:08:33.429Z,120.00
2019-06-27T09:09:33.797Z,112.00
2019-06-27T09:10:33.413Z,116.00
2019-06-27T09:11:35.666Z,120.00
2019-06-27T09:12:33.378Z,120.00
2019-06-27T09:13:34.282Z,116.00
2019-06-27T09:14:33.422Z,120.00
2019-06-27T09:15:34.273Z,120.00
2019-06-27T09:16:34.302Z,120.00
2019-06-27T09:17:34.268Z,120.00
2019-06-27T09:18:34.319Z,120.00
2019-06-27T09:19:33.313Z,120.00
2019-06-27T09:20:33.293Z,120.00
2019-06-27T09:21:34.349Z,120.00
2019-06-27T09:22:33.296Z,120.00
2019-06-27T09:23:36.736Z,120.00
2019-06-27T09:24:33.301Z,120.00
2019-06-27T09:25:33.240Z,120.00
2019-06-27T09:26:33.236Z,120.00
2019-06-27T09:27:33.234Z,120.00
2019-06-27T09:28:33.235Z,124.00
2019-06-27T09:29:33.203Z,124.00
2019-06-27T09:30:33.774Z,120.00
2019-06-27T09:31:33.177Z,120.00
2019-06-27T09:32:33.777Z,124.00
2019-06-27T09:33:33.166Z,120.00
2019-06-27T09:34:33.231Z,124.00
2019-06-27T09:35:33.213Z,124.00
2019-06-27T09:36:33.124Z,124.00
2019-06-27T09:37:33.120Z,124.00
2019-06-27T09:38:33.812Z,124.00
2019-06-27T09:39:33.100Z,124.00
2019-06-27T09:40:33.104Z,124.00
2019-06-27T09:41:33.817Z,128.00
2019-06-27T09:42:33.062Z,128.00
2019-06-27T09:43:33.056Z,128.00
2019-06-27T09:44:33.035Z,128.00
2019-06-27T09:45:33.043Z,124.00
2019-06-27T09:46:33.801Z,124.00
2019-06-27T09:47:33.008Z,124.00
2019-06-27T09:48:33.006Z,128.00
2019-06-27T09:49:32.983Z,128.00
2019-06-27T09:50:33.003Z,132.00
2019-06-27T09:51:32.971Z,128.00
2019-06-27T09:52:32.961Z,132.00
2019-06-27T09:53:32.957Z,128.00
2019-06-27T09:54:32.965Z,132.00
2019-06-27T09:55:32.927Z,132.00
2019-06-27T09:56:32.908Z,132.00
2019-06-27T09:57:32.911Z,132.00
2019-06-27T09:58:32.887Z,136.00
2019-06-27T09:59:32.883Z,136.00
2019-06-27T10:00:32.875Z,132.00
2019-06-27T10:01:32.872Z,136.00
2019-06-27T10:02:41.816Z,136.00
2019-06-27T10:03:32.828Z,136.00
2019-06-27T10:04:32.823Z,136.00
2019-06-27T10:05:33.291Z,136.00
2019-06-27T10:06:32.798Z,136.00
2019-06-27T10:07:32.800Z,136.00
2019-06-27T10:08:33.282Z,136.00
2019-06-27T10:09:32.772Z,136.00
2019-06-27T10:10:32.773Z,136.00
2019-06-27T10:11:32.740Z,136.00
2019-06-27T10:12:42.290Z,136.00
2019-06-27T10:13:32.745Z,136.00
2019-06-27T10:14:32.717Z,136.00
2019-06-27T10:15:32.711Z,136.00
2019-06-27T10:16:32.698Z,136.00
2019-06-27T10:17:32.694Z,136.00
2019-06-27T10:18:32.668Z,136.00
2019-06-27T10:19:32.668Z,136.00
2019-06-27T10:20:32.659Z,136.00
2019-06-27T10:21:33.275Z,136.00
2019-06-27T10:22:33.274Z,136.00
2019-06-27T10:23:32.644Z,136.00
2019-06-27T10:24:33.288Z,136.00
2019-06-27T10:25:32.620Z,132.00
2019-06-27T10:26:32.637Z,132.00
2019-06-27T10:27:32.587Z,132.00
2019-06-27T10:28:32.594Z,132.00
2019-06-27T10:29:32.571Z,132.00
2019-06-27T10:30:32.778Z,132.00
2019-06-27T10:31:32.534Z,132.00
2019-06-27T10:32:32.528Z,132.00
2019-06-27T10:33:32.511Z,132.00
2019-06-27T10:34:32.519Z,132.00
2019-06-27T10:35:32.757Z,136.00
2019-06-27T10:36:32.535Z,132.00
2019-06-27T10:37:32.537Z,132.00
2019-06-27T10:38:33.301Z,132.00
2019-06-27T10:39:32.444Z,132.00
2019-06-27T10:40:33.490Z,132.00
2019-06-27T10:41:32.790Z,132.00
2019-06-27T10:42:33.316Z,132.00
2019-06-27T10:43:32.409Z,132.00
2019-06-27T10:44:32.388Z,132.00
2019-06-27T10:45:32.406Z,136.00
2019-06-27T10:46:32.804Z,132.00
2019-06-27T10:47:32.365Z,132.00
2019-06-27T10:48:32.346Z,132.00
2019-06-27T10:49:32.411Z,132.00
2019-06-27T10:50:32.343Z,136.00
2019-06-27T10:51:32.326Z,136.00
2019-06-27T10:52:33.280Z,140.00
2019-06-27T10:53:33.280Z,140.00
2019-06-27T10:54:32.277Z,140.00
2019-06-27T10:55:32.289Z,140.00
2019-06-27T10:56:36.300Z,104.00
2019-06-27T10:57:32.251Z,144.00
2019-06-27T10:58:32.250Z,144.00
2019-06-27T10:59:32.226Z,144.00
2019-06-27T11:00:32.217Z,144.00
2019-06-27T11:01:32.236Z,140.00
2019-06-27T11:02:32.199Z,140.00
2019-06-27T11:03:32.796Z,144.00
2019-06-27T11:04:32.180Z,144.00
2019-06-27T11:05:32.174Z,140.00
2019-06-27T11:06:32.175Z,148.00
2019-06-27T11:07:32.786Z,148.00
2019-06-27T11:08:32.141Z,148.00
2019-06-27T11:09:32.151Z,148.00
2019-06-27T11:10:32.114Z,148.00
2019-06-27T11:11:32.113Z,148.00
2019-06-27T11:12:32.103Z,148.00
2019-06-27T11:13:32.082Z,148.00
2019-06-27T11:14:32.070Z,144.00
2019-06-27T11:15:32.059Z,148.00
2019-06-27T11:16:32.319Z,148.00
2019-06-27T11:17:32.040Z,124.00
2019-06-27T11:18:32.022Z,128.00
2019-06-27T11:19:32.017Z,116.00
2019-06-27T11:20:32.033Z,152.00
2019-06-27T11:21:32.011Z,144.00
2019-06-27T11:22:31.979Z,140.00
2019-06-27T11:23:31.987Z,144.00
2019-06-27T11:24:31.974Z,144.00
2019-06-27T11:25:32.792Z,144.00
2019-06-27T11:26:32.296Z,148.00
2019-06-27T11:27:31.984Z,144.00
2019-06-27T11:28:31.918Z,140.00
2019-06-27T11:29:31.905Z,144.00
2019-06-27T11:30:31.917Z,144.00
2019-06-27T11:31:31.905Z,144.00
2019-06-27T11:32:32.348Z,144.00
2019-06-27T11:33:33.236Z,144.00
2019-06-27T11:34:34.953Z,144.00
2019-06-27T11:35:31.846Z,144.00
2019-06-27T11:36:31.833Z,144.00
2019-06-27T11:37:31.838Z,144.00
2019-06-27T11:38:31.806Z,144.00
2019-06-27T11:39:32.782Z,140.00
2019-06-27T11:40:31.793Z,144.00
2019-06-27T11:41:31.773Z,152.00
2019-06-27T11:42:31.810Z,148.00
2019-06-27T11:43:31.751Z,148.00
2019-06-27T11:44:32.289Z,152.00
2019-06-27T11:45:31.730Z,144.00
2019-06-27T11:46:31.721Z,144.00
2019-06-27T11:47:34.452Z,144.00
2019-06-27T11:48:31.706Z,144.00
2019-06-27T11:49:31.697Z,144.00
2019-06-27T11:50:31.679Z,148.00
2019-06-27T11:51:31.729Z,148.00
2019-06-27T11:52:31.662Z,144.00
2019-06-27T11:53:31.669Z,144.00
2019-06-27T11:54:31.630Z,140.00
2019-06-27T11:55:31.621Z,144.00
2019-06-27T11:56:31.611Z,144.00
2019-06-27T11:57:31.608Z,140.00
2019-06-27T11:58:31.589Z,144.00
2019-06-27T11:59:31.588Z,144.00
2019-06-27T12:00:31.634Z,144.00
2019-06-27T12:01:32.291Z,144.00
2019-06-27T12:02:31.561Z,144.00
2019-06-27T12:03:47.890Z,140.00
2019-06-27T12:04:31.538Z,136.00
2019-06-27T12:05:32.297Z,144.00
2019-06-27T12:06:31.600Z,148.00
2019-06-27T12:07:31.500Z,144.00
2019-06-27T12:08:31.477Z,148.00
2019-06-27T12:09:31.477Z,140.00
2019-06-27T12:10:32.290Z,140.00
2019-06-27T12:11:31.449Z,144.00
2019-06-27T12:12:31.450Z,140.00
2019-06-27T12:13:32.291Z,144.00
2019-06-27T12:14:31.409Z,148.00
2019-06-27T12:15:31.400Z,148.00
2019-06-27T12:16:31.393Z,144.00
2019-06-27T12:17:31.807Z,140.00
2019-06-27T12:18:31.367Z,140.00
2019-06-27T12:19:31.375Z,144.00
2019-06-27T12:20:32.317Z,144.00
2019-06-27T12:21:31.344Z,144.00
2019-06-27T12:22:31.339Z,140.00
2019-06-27T12:23:31.351Z,144.00
2019-06-27T12:24:31.365Z,144.00
2019-06-27T12:25:31.293Z,144.00
2019-06-27T12:26:31.294Z,148.00
2019-06-27T12:27:31.339Z,140.00
2019-06-27T12:28:31.265Z,144.00
2019-06-27T12:29:31.789Z,144.00
2019-06-27T12:30:31.824Z,144.00
2019-06-27T12:31:31.796Z,140.00
2019-06-27T12:32:31.806Z,140.00
2019-06-27T12:33:31.390Z,144.00
2019-06-27T12:34:31.272Z,140.00
2019-06-27T12:35:31.208Z,144.00
2019-06-27T12:36:31.198Z,144.00
2019-06-27T12:37:31.793Z,144.00
2019-06-27T12:38:31.175Z,140.00
2019-06-27T12:39:31.153Z,140.00
2019-06-27T12:40:31.789Z,144.00
2019-06-27T12:41:31.800Z,140.00
2019-06-27T12:42:32.692Z,140.00
2019-06-27T12:43:31.113Z,140.00
2019-06-27T12:44:31.096Z,144.00
2019-06-27T12:45:31.800Z,140.00
2019-06-27T12:46:31.087Z,140.00
2019-06-27T12:47:31.793Z,136.00
2019-06-27T12:48:31.062Z,136.00
2019-06-27T12:49:49.666Z,140.00